createdAt,value
2023-03-22T00:01:44.444Z,10.10
2023-03-22T00:04:11.233Z,10.20
2023-03-22T00:06:37.976Z,10.20
2023-03-22T00:09:04.780Z,10.20
2023-03-22T00:11:31.499Z,10.20
2023-03-22T00:13:59.566Z,10.20
2023-03-22T00:16:26.555Z,10.30
2023-03-22T00:18:53.372Z,10.20
2023-03-22T00:21:20.164Z,10.10
2023-03-22T00:23:46.890Z,10.20
2023-03-22T00:26:14.360Z,10.10
2023-03-22T00:28:41.342Z,10.10
2023-03-22T00:31:10.123Z,10.20
2023-03-22T00:33:37.442Z,10.20
2023-03-22T00:36:06.577Z,10.20
2023-03-22T00:38:42.079Z,10.20
2023-03-22T00:41:11.935Z,10.30
2023-03-22T00:43:38.988Z,10.30
2023-03-22T00:46:06.378Z,10.30
2023-03-22T00:48:34.840Z,10.20
2023-03-22T00:51:02.472Z,10.20
2023-03-22T00:53:29.236Z,10.20
2023-03-22T00:55:56.261Z,10.20
2023-03-22T00:58:23.027Z,10.20
2023-03-22T01:00:50.277Z,10.10
2023-03-22T01:03:17.400Z,10.10
2023-03-22T01:05:46.256Z,10.10
2023-03-22T01:08:13.100Z,10.10
2023-03-22T01:10:41.260Z,10.20
2023-03-22T01:13:09.188Z,10.20
2023-03-22T01:15:36.301Z,10.10
2023-03-22T01:18:03.223Z,10.10
2023-03-22T01:20:36.318Z,10.10
2023-03-22T01:23:04.370Z,10.10
2023-03-22T01:25:31.200Z,10.20
2023-03-22T01:27:58.089Z,10.10
2023-03-22T01:30:25.016Z,10.20
2023-03-22T01:32:51.767Z,10.20
2023-03-22T01:35:18.604Z,10.20
2023-03-22T01:37:45.314Z,10.20
2023-03-22T01:40:15.113Z,10.20
2023-03-22T01:42:41.876Z,10.20
2023-03-22T01:45:37.545Z,10.20
2023-03-22T01:48:09.880Z,10.20
2023-03-22T01:50:39.172Z,10.20
2023-03-22T01:53:08.933Z,10.20
2023-03-22T01:55:37.835Z,10.20
2023-03-22T01:58:04.999Z,10.20
2023-03-22T02:00:33.604Z,10.30
2023-03-22T02:03:00.721Z,10.20
2023-03-22T02:05:27.954Z,10.20
2023-03-22T02:07:54.748Z,10.20
2023-03-22T02:10:24.066Z,10.20
2023-03-22T02:13:06.244Z,10.20
2023-03-22T02:15:39.114Z,10.20
2023-03-22T02:18:19.419Z,10.10
2023-03-22T02:21:22.232Z,10.20
2023-03-22T02:24:20.268Z,10.10
2023-03-22T02:27:17.748Z,10.00
2023-03-22T02:29:52.776Z,10.10
2023-03-22T02:33:05.482Z,10.10
2023-03-22T02:35:46.315Z,10.10
2023-03-22T02:38:53.726Z,10.10
2023-03-22T02:41:31.442Z,10.10
2023-03-22T02:44:07.208Z,10.10
2023-03-22T02:46:39.627Z,10.00
2023-03-22T02:49:14.095Z,10.00
2023-03-22T02:51:45.768Z,10.00
2023-03-22T02:54:20.121Z,10.10
2023-03-22T02:56:51.506Z,10.10
2023-03-22T02:59:21.896Z,10.10
2023-03-22T03:01:51.772Z,10.20
2023-03-22T03:04:21.672Z,10.20
2023-03-22T03:06:50.941Z,10.10
2023-03-22T03:09:20.477Z,10.10
2023-03-22T03:11:48.719Z,10.00
2023-03-22T03:14:24.316Z,10.10
2023-03-22T03:17:06.182Z,10.10
2023-03-22T03:19:38.881Z,10.10
2023-03-22T03:22:17.975Z,10.10
2023-03-22T03:24:53.042Z,10.10
2023-03-22T03:27:24.996Z,10.10
2023-03-22T03:29:58.418Z,10.20
2023-03-22T03:32:29.033Z,10.20
2023-03-22T03:34:59.488Z,10.20
2023-03-22T03:37:30.724Z,10.20
2023-03-22T03:40:04.362Z,10.20
2023-03-22T03:42:32.275Z,10.20
2023-03-22T03:44:59.742Z,10.10
2023-03-22T03:47:29.284Z,10.10
2023-03-22T03:49:56.124Z,10.10
2023-03-22T03:52:22.937Z,10.10
2023-03-22T03:54:49.817Z,10.00
2023-03-22T03:57:18.038Z,9.90
2023-03-22T03:59:44.731Z,9.90
2023-03-22T04:02:11.473Z,9.90
2023-03-22T04:04:38.327Z,9.90
2023-03-22T04:07:06.477Z,9.90
2023-03-22T04:09:34.963Z,9.90
2023-03-22T04:12:02.093Z,9.90
2023-03-22T04:14:30.468Z,9.90
2023-03-22T04:16:57.286Z,9.90
2023-03-22T04:19:24.151Z,9.90
2023-03-22T04:21:50.885Z,9.90
2023-03-22T04:24:17.665Z,9.80
2023-03-22T04:26:44.446Z,9.80
2023-03-22T04:29:11.178Z,9.80
2023-03-22T04:31:39.380Z,9.80
2023-03-22T04:34:06.422Z,9.70
2023-03-22T04:36:34.954Z,9.70
2023-03-22T04:39:02.041Z,9.70
2023-03-22T04:41:30.280Z,9.70
2023-03-22T04:43:57.058Z,9.70
2023-03-22T04:46:47.301Z,9.60
2023-03-22T04:49:14.067Z,9.50
2023-03-22T04:51:40.808Z,9.40
2023-03-22T04:54:07.551Z,9.30
2023-03-22T04:56:34.269Z,9.40
2023-03-22T04:59:01.007Z,9.50
2023-03-22T05:01:27.762Z,9.50
2023-03-22T05:03:55.795Z,9.50
2023-03-22T05:06:22.682Z,9.50
2023-03-22T05:08:49.473Z,9.40
2023-03-22T05:11:17.674Z,9.40
2023-03-22T05:13:44.386Z,9.30
2023-03-22T05:16:11.352Z,9.30
2023-03-22T05:18:38.332Z,9.30
2023-03-22T05:21:10.303Z,9.30
2023-03-22T05:23:37.013Z,9.30
2023-03-22T05:26:03.900Z,9.20
2023-03-22T05:28:30.634Z,9.20
2023-03-22T05:30:57.472Z,9.20
2023-03-22T05:33:24.230Z,9.20
2023-03-22T05:35:51.270Z,9.20
2023-03-22T05:38:19.658Z,9.20
2023-03-22T05:40:46.378Z,9.20
2023-03-22T05:43:13.139Z,9.10
2023-03-22T05:45:40.034Z,9.10
2023-03-22T05:48:07.345Z,9.10
2023-03-22T05:50:34.665Z,9.10
2023-03-22T05:53:01.834Z,9.10
2023-03-22T05:55:30.393Z,9.10
2023-03-22T05:57:57.161Z,9.10
2023-03-22T06:00:24.208Z,9.10
2023-03-22T06:02:51.374Z,9.20
2023-03-22T06:05:18.604Z,9.10
2023-03-22T06:07:45.349Z,9.20
2023-03-22T06:10:14.429Z,9.20
2023-03-22T06:12:42.696Z,9.10
2023-03-22T06:15:10.929Z,9.10
2023-03-22T06:17:37.880Z,9.10
2023-03-22T06:20:05.727Z,9.20
2023-03-22T06:22:32.452Z,9.20
2023-03-22T06:24:59.156Z,9.20
2023-03-22T06:27:25.960Z,9.20
2023-03-22T06:29:53.989Z,9.20
2023-03-22T06:32:20.993Z,9.20
2023-03-22T06:34:47.686Z,9.20
2023-03-22T06:37:14.387Z,9.30
2023-03-22T06:39:41.129Z,9.20
2023-03-22T06:42:07.848Z,9.20
2023-03-22T06:44:34.554Z,9.20
2023-03-22T06:49:53.918Z,9.20
2023-03-22T06:52:20.792Z,9.30
2023-03-22T06:54:47.487Z,9.40
2023-03-22T06:57:14.240Z,9.40
2023-03-22T06:59:40.965Z,9.50
2023-03-22T07:02:12.105Z,9.50
2023-03-22T07:04:39.289Z,9.50
2023-03-22T07:07:06.078Z,9.60
2023-03-22T07:09:32.800Z,9.70
2023-03-22T07:11:59.567Z,9.80
2023-03-22T07:14:26.342Z,9.90
2023-03-22T07:16:53.092Z,9.90
2023-03-22T07:19:21.245Z,10.00
2023-03-22T07:21:47.954Z,10.00
2023-03-22T07:24:14.717Z,10.00
2023-03-22T07:26:41.560Z,10.00
2023-03-22T07:29:08.279Z,10.10
2023-03-22T07:31:35.113Z,10.10
2023-03-22T07:34:01.992Z,10.10
2023-03-22T07:36:30.435Z,10.20
2023-03-22T07:38:57.173Z,10.20
2023-03-22T07:41:24.208Z,10.20
2023-03-22T07:43:55.438Z,10.20
2023-03-22T07:46:25.013Z,10.30
2023-03-22T07:48:51.712Z,10.30
2023-03-22T07:51:18.417Z,10.30
2023-03-22T07:53:46.452Z,10.30
2023-03-22T07:56:13.188Z,10.40
2023-03-22T07:58:40.055Z,10.40
2023-03-22T08:01:08.245Z,10.40
2023-03-22T08:03:35.597Z,10.40
2023-03-22T08:06:03.439Z,10.40
2023-03-22T08:08:30.278Z,10.40
2023-03-22T08:10:58.339Z,10.50
2023-03-22T08:13:25.297Z,10.50
2023-03-22T08:15:52.098Z,10.50
2023-03-22T08:18:18.811Z,10.50
2023-03-22T08:20:45.574Z,10.60
2023-03-22T08:23:12.436Z,10.60
2023-03-22T08:25:39.179Z,10.60
2023-03-22T08:28:07.345Z,10.60
2023-03-22T08:30:34.231Z,10.70
2023-03-22T08:33:01.084Z,10.70
2023-03-22T08:35:28.065Z,10.70
2023-03-22T08:37:55.058Z,10.70
2023-03-22T08:40:21.933Z,10.70
2023-03-22T08:42:48.852Z,10.70
2023-03-22T08:45:17.307Z,10.80
2023-03-22T08:47:44.184Z,10.80
2023-03-22T08:50:12.393Z,10.80
2023-03-22T08:52:39.601Z,10.80
2023-03-22T08:55:08.003Z,10.90
2023-03-22T08:57:36.993Z,10.90
2023-03-22T09:00:06.976Z,10.90
2023-03-22T09:02:35.037Z,10.90
2023-03-22T09:05:01.748Z,11.00
2023-03-22T09:07:28.672Z,11.00
2023-03-22T09:09:55.548Z,11.00
2023-03-22T09:12:22.279Z,11.00
2023-03-22T09:14:49.015Z,11.00
2023-03-22T09:17:15.986Z,11.10
2023-03-22T09:19:44.143Z,11.10
2023-03-22T09:22:10.975Z,11.10
2023-03-22T09:24:37.703Z,11.20
2023-03-22T09:27:04.538Z,11.20
2023-03-22T09:29:31.311Z,11.20
2023-03-22T09:31:58.090Z,11.30
2023-03-22T09:34:24.848Z,11.30
2023-03-22T09:36:52.931Z,11.30
2023-03-22T09:39:19.650Z,11.30
2023-03-22T09:41:50.885Z,11.40
2023-03-22T09:44:24.369Z,11.30
2023-03-22T09:46:54.486Z,11.40
2023-03-22T09:49:25.565Z,11.40
2023-03-22T09:51:54.786Z,11.40
2023-03-22T09:54:28.932Z,11.50
2023-03-22T09:57:02.066Z,11.50
2023-03-22T09:59:38.539Z,11.50
2023-03-22T10:02:25.274Z,11.50
2023-03-22T10:05:01.406Z,11.60
2023-03-22T10:07:38.030Z,11.60
2023-03-22T10:10:11.653Z,11.70
2023-03-22T10:12:43.160Z,11.70
2023-03-22T10:15:14.676Z,11.70
2023-03-22T10:17:46.245Z,11.70
2023-03-22T10:20:24.312Z,11.70
2023-03-22T10:22:54.610Z,11.70
2023-03-22T10:25:26.968Z,11.70
2023-03-22T10:27:53.720Z,11.80
2023-03-22T10:30:22.879Z,11.80
2023-03-22T10:32:58.079Z,11.80
2023-03-22T10:35:25.627Z,11.80
2023-03-22T10:37:55.730Z,11.90
2023-03-22T10:40:26.028Z,11.90
2023-03-22T10:42:56.062Z,11.90
2023-03-22T10:45:25.500Z,12.00
2023-03-22T10:47:59.165Z,12.00
2023-03-22T10:50:31.660Z,12.00
2023-03-22T10:53:05.077Z,12.10
2023-03-22T10:55:31.840Z,12.10
2023-03-22T10:58:11.230Z,12.10
2023-03-22T11:00:41.884Z,12.10
2023-03-22T11:03:09.068Z,12.20
2023-03-22T11:05:35.883Z,12.20
2023-03-22T11:08:04.317Z,12.20
2023-03-22T11:10:33.356Z,12.30
2023-03-22T11:13:18.684Z,12.30
2023-03-22T11:15:53.085Z,12.30
2023-03-22T11:18:20.140Z,12.40
2023-03-22T11:20:57.036Z,12.40
2023-03-22T11:23:25.934Z,12.40
2023-03-22T11:25:56.470Z,12.50
2023-03-22T11:28:27.548Z,12.50
2023-03-22T11:31:07.084Z,12.50
2023-03-22T11:33:34.332Z,12.60
2023-03-22T11:36:05.280Z,12.60
2023-03-22T11:38:38.873Z,12.60
2023-03-22T11:41:09.052Z,12.70
2023-03-22T11:43:38.536Z,12.60
2023-03-22T11:46:07.598Z,12.70
2023-03-22T11:48:36.180Z,12.70
2023-03-22T11:51:09.356Z,12.70
2023-03-22T11:53:40.443Z,12.80
2023-03-22T11:56:11.280Z,12.80
2023-03-22T11:58:53.275Z,12.80
2023-03-22T12:01:30.970Z,12.80
2023-03-22T12:03:59.042Z,12.90
2023-03-22T12:06:30.056Z,12.90
2023-03-22T12:09:01.833Z,12.90
2023-03-22T12:11:35.896Z,12.90
2023-03-22T12:14:06.637Z,13.00
2023-03-22T12:16:44.844Z,13.00
2023-03-22T12:19:22.199Z,13.00
2023-03-22T12:21:49.975Z,13.00
2023-03-22T12:24:25.817Z,13.10
2023-03-22T12:26:55.253Z,13.10
2023-03-22T12:29:22.194Z,13.10
2023-03-22T12:31:58.237Z,13.10
2023-03-22T12:34:34.330Z,13.20
2023-03-22T12:37:02.695Z,13.20
2023-03-22T12:39:37.229Z,13.20
2023-03-22T12:42:13.036Z,13.20
2023-03-22T12:44:43.437Z,13.20
2023-03-22T12:47:18.282Z,13.20
2023-03-22T12:49:52.584Z,13.30
2023-03-22T12:52:25.227Z,13.30
2023-03-22T12:54:56.461Z,13.30
2023-03-22T12:57:23.217Z,13.30
2023-03-22T12:59:53.135Z,13.40
2023-03-22T13:02:24.995Z,13.40
2023-03-22T13:04:54.241Z,13.40
2023-03-22T13:07:39.269Z,13.40
2023-03-22T13:10:40.793Z,13.40
2023-03-22T13:13:17.031Z,13.40
2023-03-22T13:15:59.869Z,13.40
2023-03-22T13:18:37.012Z,13.50
2023-03-22T13:21:12.432Z,13.50
2023-03-22T13:23:54.865Z,13.50
2023-03-22T13:26:36.432Z,13.50
2023-03-22T13:29:11.554Z,13.50
2023-03-22T13:31:43.304Z,13.50
2023-03-22T13:34:17.271Z,13.50
2023-03-22T13:36:54.673Z,13.50
2023-03-22T13:39:22.420Z,13.50
2023-03-22T13:42:02.281Z,13.60
2023-03-22T13:44:31.119Z,13.60
2023-03-22T13:46:59.683Z,13.60
2023-03-22T13:49:46.163Z,13.60
2023-03-22T13:52:25.204Z,13.60
2023-03-22T13:54:54.847Z,13.70
2023-03-22T13:57:45.431Z,13.70
2023-03-22T14:00:38.472Z,13.70
2023-03-22T14:03:13.221Z,13.70
2023-03-22T14:05:42.167Z,13.70
2023-03-22T14:08:20.239Z,13.80
2023-03-22T14:10:50.485Z,13.80
2023-03-22T14:13:26.262Z,13.80
2023-03-22T14:15:56.276Z,13.80
2023-03-22T14:18:26.884Z,13.80
2023-03-22T14:20:57.748Z,13.80
